Logo AVAMET
Benvolgut visitant, si us plau, ingressa Recuperar contrasenya
AVAMET paisatges

Inforatge Borriana Serratella

Dades diàries. Acumulats / Últims 30 dies disponibles

Data Temperatura (°C) Humitat rel. (%) Pressió rel. (hPa) Vent (km/h) Precipitació
Mínima Mitjana Màxima Amplitud
tèrmica
Mínima Mitjana Màxima Mínima Mitjana Màxima Predom. Mitjana Ràfega
màxima
Total
(mm)
Índex-n
Mínima Mitjana Màxima Mínima Mitjana Màxima n
0 a 1
P0 max
mm 5'
Dades mensuals acumulades fins l'últim dia disponible
11/2019 4,9 10,6 18,3 15,0 14,6 19,5 27,5 22,6 18 49 78 992 1.011 1.022   8,6 54,7 2,4
Dades anuals acumulades fins l'últim dia disponible
2019 0,1 11,9 24,2 16,2 11,1 20,3 33,6 33,5 9 63 89 992 1.022 1.038   7,2 82,0 111,4
Últims 30 dies disponibles
30-11-2019 10,4     14,4     16,9 6,5 62 68 75 1.016 1.020 1.022 SSO 3,8 19,3 0,0
29-11-2019 14,7     16,7     18,9 4,2 49 61 70 1.015 1.019 1.022 SW 4,3 25,7 0,0
28-11-2019 11,0     16,2     22,0 11,0 33 51 62 1.013 1.015 1.017 SW 9,2 30,6 0,0
27-11-2019 15,7     18,8     23,4 7,7 29 46 61 1.008 1.010 1.013 SW 12,4 40,2 0,0
26-11-2019 10,4     14,2     18,9 8,5 56 63 70 1.008 1.012 1.016 NW 4,5 32,2 0,0
25-11-2019 9,2     15,5     23,5 14,3 27 53 69 1.011 1.013 1.016 W 7,7 35,4 0,0
24-11-2019 10,4     14,9     18,9 8,5 28 38 54 1.007 1.011 1.014 WNW 12,4 41,8 0,0
23-11-2019 12,4     15,2     17,4 5,0 28 44 73 992 998 1.007 WNW 15,6 54,7 0,2
22-11-2019 7,7     12,8     15,8 8,1 59 67 78 994 1.003 1.009 NW 4,2 24,1 1,0
21-11-2019 5,4     12,5     16,9 11,5 46 60 72 1.008 1.009 1.011 SW 8,0 37,0 0,0
20-11-2019 8,3     11,5     15,1 6,8 48 55 64 1.010 1.013 1.017 NW 7,6 25,7 0,0
19-11-2019 4,9     9,9     14,6 9,7 35 50 61 1.016 1.017 1.019 NW 6,8 20,9 0,0
18-11-2019 7,8     12,2     16,2 8,4 28 48 67 1.008 1.012 1.017 NW 5,6 20,9 0,0
17-11-2019 6,3     12,7     18,3 12,0 31 45 57 1.009 1.012 1.015 SW 7,7 33,8 0,0
16-11-2019 6,2     10,0     16,0 9,8 25 51 65 1.007 1.012 1.015 NW 5,5 19,3 0,0
15-11-2019 8,2     11,9     16,4 8,2 27 43 60 1.001 1.003 1.007 W 10,1 38,6 0,0
14-11-2019 10,2     14,0     16,5 6,3 29 49 68 999 1.002 1.010 SW 13,2 53,1 0,0
13-11-2019 10,7     14,1     18,2 7,5 46 60 76 1.005 1.008 1.012 SW 4,7 29,0 1,0
12-11-2019 10,4     14,7     19,7 9,3 26 38 57 1.010 1.012 1.014 NW 6,8 30,6 0,2
11-11-2019 9,1     13,5     18,2 9,1 28 44 58 1.011 1.014 1.015 NW 6,9 25,7 0,0
10-11-2019 9,7     13,6     17,9 8,2 25 39 49 1.011 1.013 1.015 NW 7,4 43,5 0,0
09-11-2019 13,1     15,6     19,7 6,6 26 38 56 1.013 1.016 1.019 WNW 9,8 40,2 0,0
08-11-2019 9,0     14,3     18,6 9,6 22 34 55 1.009 1.012 1.016 WNW 12,7 48,3 0,0
07-11-2019 9,5     15,2     22,8 13,3 27 50 62 1.007 1.009 1.013 NW 7,6 46,7 0,0
06-11-2019 10,8     16,3     21,7 10,9 24 41 57 1.012 1.013 1.014 W 8,7 40,2 0,0
05-11-2019 13,3     18,1     21,6 8,3 23 38 56 1.005 1.008 1.012 W 12,4 46,7 0,0
04-11-2019 14,2     20,1     24,6 10,4 33 44 58 1.006 1.008 1.010 SW 13,7 45,1 0,0
03-11-2019 16,4     21,0     24,4 8,0 18 38 56 999 1.004 1.010 SW 16,3 54,7 0,0
02-11-2019 18,3     21,9     27,5 9,2 33 55 70 1.004 1.008 1.013 SW 8,5 37,0 0,0
01-11-2019 15,1     19,6     23,5 8,4 56 67 74 1.013 1.017 1.022 NW 3,2 14,5 0,0
Últims 13 mesos disponibles
11/2019 4,9 10,6 18,3 15,0 14,6 19,5 27,5 22,6 34 49 68 998 1.011 1.020 NW 8,6 54,7 2,4
10/2019 9,4 14,8 19,3 18,9 15,5 23,0 28,2 18,8 57 68 78 1.008 1.018 1.023 NW 5,5 48,3 16,2
08/2019 17,6 21,0 24,2 24,9 25,9 28,1 33,6 16,0 51 69 75 1.017 1.026 1.028 SSO 6,1 70,9 24,0
05/2019 8,2 13,3 17,3 17,0 16,4 20,4 27,9 19,7 46 65 76 1.028 1.028 1.028 S 7,0 53,7 12,0
04/2019 5,6 11,4 15,1 15,1 15,7 18,1 22,7 17,1 52 67 83 1.028 1.028 1.028 SSO 11,1 66,7 19,6
03/2019 5,4 8,0 11,4 13,3 15,1 17,9 24,6 19,2 48 64 80 1.013 1.024 1.031 SO 6,4 40,7 0,2
02/2019 0,1 5,5 11,1 10,5 13,0 15,2 20,7 20,6 21 65 78 995 1.026 1.036 SO 6,7 75,9 0,0
01/2019 1,4 5,1 9,3 9,8 11,1 15,3 22,6 21,2 36 59 75 1.002 1.020 1.032 O 7,6 82,0 2,2
12/2018 4,7 7,3 10,6 11,1 10,3 15,6 21,8 17,1 54 70 84 1.009 1.026 1.032 O 5,2 43,5 11,8
11/2018 6,1 10,4 15,4 14,1 14,8 18,5 23,2 17,1 56 72 88 1.003 1.016 1.025 OSO 6,9 59,6 88,0
Tots els anys disponibles
Temperatura (°C)
Humitat relativa (%)
Velocitat del vent i ràfega màxima (km/h)
Direcció del vent (°)
Pressió (hPa)
Precipitació (mm)
Nota sobre les dades: s'avisa a l'usuari de la provisionalitat i no oficialitat d'aquestes dades
Logo AVAMET blanc
Web allotjada a Sollutia
Llicència de Creative CommonsLa web d'AVAMET i els seus continguts estan subjectes a una llicència de
Reconeixement - No Comercial - Compartir igual
Últimes estacions: Cirat (Estació pròpia d'AVAMET), Torremocha del Jiloca (Limítrofe/Soci), Orihuela - Arneva (MeteOrihuela), Enguera - Antolí (Soci), Vilamarxant - La Pedrera (Soci), Càlig (Ajuntament Soci), Quesa - Hotel La Rocha (Soci) - - -